Time;durP1;ratioP1;P1;durP2;ratioP2;P2;SDS_P1;SDS_P2;PMS_P1;PMS_P2;Temp;Humidity;BMP_temperature;BMP_pressure;BME280_temperature;BME280_humidity;BME280_pressure;Samples;Min_cycle;Max_cycle;Signal;HPM_P1;HPM_P2
2022/12/16 00:00:31;;;;;;;37.60;20.67;;;-8.70;99.90;;;;;;5022799;28;20234;-86
2022/12/16 00:03:00;;;;;;;49.87;22.53;;;-8.70;99.90;;;;;;5055687;28;20178;-86
2022/12/16 00:05:27;;;;;;;43.28;20.70;;;-8.70;99.90;;;;;;5055500;28;20184;-86
2022/12/16 00:07:52;;;;;;;38.63;20.77;;;-8.70;99.90;;;;;;5054699;28;20228;-86
2022/12/16 00:10:18;;;;;;;50.67;19.73;;;-8.70;99.90;;;;;;5039001;28;20269;-87
2022/12/16 00:12:43;;;;;;;45.13;18.87;;;-8.70;99.90;;;;;;5055237;28;20195;-86
2022/12/16 00:15:09;;;;;;;35.97;20.30;;;-8.70;99.90;;;;;;5038454;28;20193;-86
2022/12/16 00:17:35;;;;;;;40.50;19.88;;;-8.70;99.90;;;;;;5038636;28;20187;-86
2022/12/16 00:20:02;;;;;;;35.50;18.90;;;-8.70;99.90;;;;;;5038260;28;20187;-87
2022/12/16 00:22:28;;;;;;;46.20;19.90;;;-8.70;99.90;;;;;;5055106;28;20183;-86
2022/12/16 00:24:53;;;;;;;34.17;18.40;;;-8.70;99.90;;;;;;5054749;28;20617;-87
2022/12/16 00:27:19;;;;;;;42.90;20.93;;;-8.70;99.90;;;;;;5038330;28;20232;-87
2022/12/16 00:29:44;;;;;;;40.20;18.60;;;-8.70;99.90;;;;;;5056170;28;20178;-87
2022/12/16 00:32:10;;;;;;;38.80;20.37;;;-8.70;99.90;;;;;;5038304;28;20222;-86
2022/12/16 00:34:36;;;;;;;39.60;20.00;;;-8.70;99.90;;;;;;5022899;28;20177;-87
2022/12/16 00:37:01;;;;;;;36.80;19.30;;;-8.70;99.90;;;;;;5054919;28;20202;-87
2022/12/16 00:39:27;;;;;;;41.93;22.13;;;-8.70;99.90;;;;;;5054731;28;20229;-87
2022/12/16 00:41:52;;;;;;;44.33;20.40;;;-8.70;99.90;;;;;;5056275;28;20700;-86
2022/12/16 00:44:18;;;;;;;37.50;20.00;;;-8.70;99.90;;;;;;5038980;28;20176;-86
2022/12/16 00:46:43;;;;;;;42.93;21.80;;;-8.70;99.90;;;;;;5055117;28;20181;-86
2022/12/16 00:49:09;;;;;;;37.50;19.93;;;-8.70;99.90;;;;;;5054405;28;20183;-86
2022/12/16 00:51:35;;;;;;;44.23;21.40;;;-8.60;99.90;;;;;;5022449;28;20299;-86
2022/12/16 00:54:00;;;;;;;52.37;21.47;;;-8.70;99.90;;;;;;5055332;28;20204;-86
2022/12/16 00:56:26;;;;;;;41.00;20.50;;;-8.70;99.90;;;;;;5056488;28;20233;-86
2022/12/16 00:58:51;;;;;;;44.13;20.20;;;-8.70;99.90;;;;;;5055029;28;20185;-87
2022/12/16 01:01:17;;;;;;;35.97;19.57;;;-8.80;99.90;;;;;;5054834;28;20198;-86
2022/12/16 01:03:43;;;;;;;41.10;20.05;;;-8.80;99.90;;;;;;5056382;28;20179;-86
2022/12/16 01:06:11;;;;;;;41.67;19.07;;;-8.90;99.90;;;;;;5054995;28;20206;-86
2022/12/16 01:08:37;;;;;;;44.70;20.00;;;-8.90;99.90;;;;;;5056136;28;20254;-86
2022/12/16 01:11:03;;;;;;;40.22;18.63;;;-8.90;99.90;;;;;;5054586;28;20608;-86
2022/12/16 01:13:29;;;;;;;45.78;20.15;;;-8.90;99.90;;;;;;5055645;28;20632;-86
2022/12/16 01:15:58;;;;;;;37.47;18.83;;;-8.90;99.90;;;;;;5058268;28;20181;-86
2022/12/16 01:18:24;;;;;;;34.05;16.92;;;-8.90;99.90;;;;;;5059857;28;20427;-86
2022/12/16 01:20:50;;;;;;;30.57;18.20;;;-8.90;99.90;;;;;;5041911;28;20284;-86
2022/12/16 01:23:15;;;;;;;37.30;17.63;;;-8.90;99.90;;;;;;5057840;28;20256;-86
2022/12/16 01:25:41;;;;;;;46.77;19.27;;;-8.90;99.90;;;;;;5059295;28;20561;-86
2022/12/16 01:28:07;;;;;;;43.27;18.10;;;-8.90;99.90;;;;;;5058071;28;20319;-86
2022/12/16 01:30:32;;;;;;;33.00;17.70;;;-9.00;99.90;;;;;;5042174;28;20254;-86
2022/12/16 01:32:58;;;;;;;36.40;16.80;;;-8.90;99.90;;;;;;5057760;28;20547;-86
2022/12/16 01:35:23;;;;;;;40.80;19.30;;;-9.00;99.90;;;;;;5058527;28;20181;-86
2022/12/16 01:37:49;;;;;;;32.50;17.33;;;-9.00;99.90;;;;;;5041447;28;20597;-86
2022/12/16 01:40:21;;;;;;;35.23;18.47;;;-9.00;99.90;;;;;;5059320;28;20201;-85
2022/12/16 01:42:46;;;;;;;32.00;16.67;;;-9.00;99.90;;;;;;5059064;28;20171;-86
2022/12/16 01:45:41;;;;;;;38.30;16.87;;;-9.00;99.90;;;;;;5059772;28;20202;-86
2022/12/16 01:48:22;;;;;;;43.15;18.70;;;-8.90;99.90;;;;;;5049038;28;20190;-86
2022/12/16 01:50:49;;;;;;;44.15;19.08;;;-8.90;99.90;;;;;;5059269;28;20598;-86
2022/12/16 01:53:15;;;;;;;33.75;17.52;;;-8.90;99.90;;;;;;5058266;28;20212;-86
2022/12/16 01:55:47;;;;;;;31.00;18.37;;;-8.90;99.90;;;;;;5053088;28;20208;-86
2022/12/16 01:58:19;;;;;;;37.10;17.55;;;-9.00;99.90;;;;;;5038927;28;20470;-86
2022/12/16 02:00:45;;;;;;;35.63;18.45;;;-8.90;99.90;;;;;;5037791;28;20395;-86
2022/12/16 02:03:11;;;;;;;35.87;16.83;;;-8.90;99.90;;;;;;5037453;28;20239;-86
2022/12/16 02:05:40;;;;;;;41.67;17.40;;;-8.90;99.90;;;;;;5054069;28;20176;-86
2022/12/16 02:08:11;;;;;;;41.75;18.80;;;-9.00;99.90;;;;;;5038709;28;20228;-86
2022/12/16 02:10:42;;;;;;;33.88;18.63;;;-9.00;99.90;;;;;;5039039;28;20537;-86
2022/12/16 02:13:14;;;;;;;31.25;17.17;;;-9.10;99.90;;;;;;5037132;28;20192;-86
2022/12/16 02:15:45;;;;;;;41.30;18.65;;;-9.10;99.90;;;;;;5049063;28;20604;-86
2022/12/16 02:18:32;;;;;;;35.92;19.70;;;-9.20;99.90;;;;;;5058412;28;20258;-86
2022/12/16 02:21:18;;;;;;;36.47;19.98;;;-9.20;99.90;;;;;;5058490;28;20185;-86
2022/12/16 02:31:06;;;;;;;32.90;17.02;;;-9.20;99.90;;;;;;5038399;28;20205;-86
2022/12/16 02:34:12;;;;;;;36.83;17.85;;;-9.20;99.90;;;;;;4980746;28;20203;-86
2022/12/16 02:36:45;;;;;;;34.35;15.80;;;-9.20;99.90;;;;;;5000062;28;20519;-86
2022/12/16 02:39:32;;;;;;;43.22;18.73;;;-9.20;99.90;;;;;;5035231;28;20189;-86
2022/12/16 02:42:00;;;;;;;45.83;22.27;;;-9.20;99.90;;;;;;5037198;28;20187;-86
2022/12/16 02:44:47;;;;;;;65.43;27.48;;;-9.10;99.90;;;;;;5037753;28;20180;-85
2022/12/16 02:47:13;;;;;;;66.75;26.50;;;-9.10;99.90;;;;;;5056862;28;20173;-86
2022/12/16 02:49:49;;;;;;;48.77;23.17;;;-9.10;99.90;;;;;;5057231;28;20197;-86
2022/12/16 02:52:18;;;;;;;75.47;27.25;;;-9.00;99.90;;;;;;5058375;28;20620;-86
2022/12/16 02:54:45;;;;;;;92.50;32.97;;;-9.10;99.90;;;;;;5057877;28;20283;-86
2022/12/16 02:57:13;;;;;;;66.68;28.45;;;-9.10;99.90;;;;;;5040254;28;20184;-86
2022/12/16 02:59:53;;;;;;;68.25;26.20;;;-9.10;99.90;;;;;;5057245;28;20260;-86
2022/12/16 03:02:40;;;;;;;50.67;23.17;;;-9.20;99.90;;;;;;5057730;28;20164;-86
2022/12/16 03:05:20;;;;;;;28.92;17.15;;;-9.20;99.90;;;;;;5058276;28;20190;-86
2022/12/16 03:07:47;;;;;;;28.25;16.15;;;-9.20;99.90;;;;;;5057081;28;20223;-86
2022/12/16 03:10:16;;;;;;;36.70;17.10;;;-9.30;99.90;;;;;;5057871;28;20249;-86
2022/12/16 03:12:43;;;;;;;32.20;15.57;;;-9.30;99.90;;;;;;5058101;28;20280;-87
2022/12/16 03:15:13;;;;;;;30.58;16.65;;;-9.30;99.90;;;;;;5055743;28;20274;-86
2022/12/16 03:17:40;;;;;;;34.10;16.73;;;-9.20;99.90;;;;;;5058259;28;20605;-86
2022/12/16 03:20:15;;;;;;;38.13;19.92;;;-9.20;99.90;;;;;;5057752;28;20212;-86
2022/12/16 03:22:45;;;;;;;38.55;17.95;;;-9.20;99.90;;;;;;5057005;28;20391;-85
2022/12/16 03:25:11;;;;;;;37.30;18.75;;;-9.20;99.90;;;;;;5056390;28;20177;-86
2022/12/16 03:28:02;;;;;;;35.47;17.80;;;-9.20;99.90;;;;;;5057096;28;20674;-86
2022/12/16 03:30:33;;;;;;;28.88;14.35;;;-9.30;99.90;;;;;;5056026;28;20459;-86
2022/12/16 03:33:11;;;;;;;39.33;15.25;;;-9.30;99.90;;;;;;5056156;28;20232;-87
2022/12/16 03:35:41;;;;;;;29.60;15.65;;;-9.30;99.90;;;;;;5057301;28;20172;-85
2022/12/16 03:38:11;;;;;;;28.95;14.82;;;-9.30;99.90;;;;;;5055325;28;20174;-85
2022/12/16 03:40:40;;;;;;;37.83;18.63;;;-9.30;99.90;;;;;;5055721;28;20269;-85
2022/12/16 03:43:06;;;;;;;29.20;13.68;;;-9.30;99.90;;;;;;5055226;28;20173;-86
2022/12/16 03:45:37;;;;;;;31.60;14.75;;;-9.30;99.90;;;;;;5055869;28;20244;-86
2022/12/16 03:48:05;;;;;;;28.60;15.15;;;-9.40;99.90;;;;;;5055526;28;20651;-86
2022/12/16 03:50:32;;;;;;;28.35;14.35;;;-9.40;99.90;;;;;;5057017;28;20206;-86
2022/12/16 03:52:58;;;;;;;25.38;13.35;;;-9.40;99.90;;;;;;5057017;28;20209;-86
2022/12/16 03:55:24;;;;;;;25.08;13.18;;;-9.40;99.90;;;;;;5055388;28;20187;-86
2022/12/16 03:57:50;;;;;;;27.27;14.50;;;-9.40;99.90;;;;;;5055455;28;20184;-86
2022/12/16 04:00:16;;;;;;;23.90;12.50;;;-9.40;99.90;;;;;;5055718;28;20189;-86
2022/12/16 04:02:42;;;;;;;26.02;13.05;;;-9.40;99.90;;;;;;5055469;28;20239;-85
2022/12/16 04:05:08;;;;;;;26.45;13.68;;;-9.40;99.90;;;;;;5056432;28;20255;-86
2022/12/16 04:07:34;;;;;;;24.45;13.10;;;-9.50;99.90;;;;;;5054976;28;20225;-86
2022/12/16 04:10:00;;;;;;;23.57;14.10;;;-9.50;99.90;;;;;;5056469;28;20528;-86
2022/12/16 04:26:16;;;;;;;25.95;13.75;;;-9.40;99.90;;;;;;5056509;28;20177;-86
2022/12/16 04:28:42;;;;;;;24.67;12.53;;;-9.40;99.90;;;;;;5038690;28;20278;-85
2022/12/16 04:31:08;;;;;;;33.00;14.13;;;-9.30;99.90;;;;;;5056079;28;20509;-86
